Terminal Aerodrome Forecast
Issued by NWS Twin Cities, MN

Home | Current Version | Previous Version | Text Only | Print | Product List | Glossary Off
Versions: 1 2 3 4 5 6 7 8 9 10 11 12 13 14 15 16 17 18 19 20 21 22 23 24 25 26

000
FTUS43 KMPX 181400 AAB
TAFMSP
TAF AMD
KMSP 181405Z 1814/1918 10007KT P6SM OVC007
     FM181540 13008KT P6SM FEW010
     FM181600 14010KT P6SM SCT045
     FM190300 16014KT P6SM BKN050=

USA.gov is the U.S. government's official web portal to all federal, state and local government web resources and services.